Lahore Weather



Lahore's Current Weather

Temprature 32o smoke

smoke

Rain: 0 %

Min Temprature32o
Max Temprature32o
Humidity79
Wind Speed7.2 m/h
Sun Rise05:26:42
Sun Set18:48:27
Current Time: 13-Aug-2020 19:32:00
Lat/Lon: 31.55, 74.34




Lahore's Geo Location



Lahore's Weather Forecast

Time Overall Temp Min Temp Max Temp Humidity Wind Speed Rain
13-Aug-2020 (Thu)
20:00:00 moderate rain 30.510 28.940 30.510 80 5.17 m/h 660 %
23:00:00 light rain 29.810 29.210 29.810 79 5.17 m/h 25 %
14-Aug-2020 (Fri)
02:00:00 overcast clouds 28.120 27.850 28.120 85 4.09 m/h 0 %
05:00:00 broken clouds 26.910 26.870 26.910 86 3.26 m/h 0 %
08:00:00 light rain 29.200 29.200 29.200 74 3.81 m/h 36 %
11:00:00 few clouds 35.420 35.420 35.420 49 3.27 m/h 0 %
14:00:00 few clouds 39.250 39.250 39.250 38 1.54 m/h 0 %
17:00:00 broken clouds 37.370 37.370 37.370 42 2.57 m/h 0 %
20:00:00 broken clouds 34.150 34.150 34.150 53 3.38 m/h 0 %
23:00:00 scattered clouds 32.050 32.050 32.050 62 3.31 m/h 0 %
15-Aug-2020 (Sat)
02:00:00 light rain 30.330 30.330 30.330 70 2.91 m/h 31 %
05:00:00 light rain 29.140 29.140 29.140 74 2.75 m/h 11 %
08:00:00 light rain 31.920 31.920 31.920 62 2.85 m/h 29 %
11:00:00 clear sky 37.140 37.140 37.140 44 2.84 m/h 0 %
14:00:00 few clouds 40.210 40.210 40.210 34 1.58 m/h 0 %
17:00:00 scattered clouds 39.430 39.430 39.430 35 2.69 m/h 0 %
20:00:00 scattered clouds 34.510 34.510 34.510 51 4.66 m/h 0 %
23:00:00 few clouds 33.160 33.160 33.160 55 4.07 m/h 0 %
16-Aug-2020 (Sun)
02:00:00 scattered clouds 32.200 32.200 32.200 61 3.96 m/h 0 %
05:00:00 light rain 30.710 30.710 30.710 68 3.53 m/h 32 %
08:00:00 light rain 31.820 31.820 31.820 66 3.37 m/h 46 %
11:00:00 light rain 37.620 37.620 37.620 45 2.11 m/h 37 %
14:00:00 scattered clouds 39.050 39.050 39.050 39 2.34 m/h 0 %
17:00:00 light rain 38.980 38.980 38.980 39 1.29 m/h 13 %
20:00:00 scattered clouds 35.110 35.110 35.110 50 3.99 m/h 0 %
23:00:00 few clouds 33.170 33.170 33.170 57 3.01 m/h 0 %
17-Aug-2020 (Mon)
02:00:00 light rain 31.720 31.720 31.720 63 3.95 m/h 37 %
05:00:00 moderate rain 29.000 29.000 29.000 78 2.98 m/h 366 %
08:00:00 light rain 31.080 31.080 31.080 72 4.65 m/h 92 %
11:00:00 light rain 36.850 36.850 36.850 48 4.19 m/h 246 %
14:00:00 light rain 38.230 38.230 38.230 42 2.49 m/h 10 %
17:00:00 overcast clouds 36.960 36.960 36.960 46 3.02 m/h 0 %
20:00:00 light rain 33.600 33.600 33.600 57 3.63 m/h 29 %
23:00:00 light rain 32.100 32.100 32.100 62 2.35 m/h 23 %
18-Aug-2020 (Tue)
02:00:00 light rain 30.750 30.750 30.750 70 2.47 m/h 162 %
05:00:00 moderate rain 28.890 28.890 28.890 80 2.02 m/h 873 %
08:00:00 light rain 30.480 30.480 30.480 74 1.93 m/h 81 %
11:00:00 light rain 35.460 35.460 35.460 53 1.92 m/h 80 %
14:00:00 light rain 37.560 37.560 37.560 45 2.53 m/h 32 %
17:00:00 overcast clouds 35.700 35.700 35.700 53 4.84 m/h 0 %


Lahore's Tourist Spots

Historical Places in Lahore

Famous Cities (60)